This is the latest recevied weather packets stored in our database for station/object KD0SBN. If no packets are shown the sender has not sent any weather packets the latest 1 day(s).
| Time | Temp. | Humidity | Pressure | Rain* | Wind** | Luminosity | Snow |
|---|---|---|---|---|---|---|---|
| 1778090268 | 1.67° C | 97% | 1019.6 hPa | 0 mm | - | - | - |
| 1778089965 | 1.67° C | 97% | 1019.4 hPa | 0 mm | - | - | - |
| 1778087845 | 2.78° C | 97% | 1019.3 hPa | 0 mm | - | - | - |
| 1778086936 | 2.78° C | 98% | 1019 hPa | 1.78 mm | - | - | - |
| 1778084813 | 2.78° C | 98% | 1018.5 hPa | 4.32 mm | - | - | - |
| 1778083904 | 2.78° C | 98% | 1018.3 hPa | 5.33 mm | - | - | - |
| 1778083602 | 2.78° C | 98% | 1018.5 hPa | 1.78 mm | - | - | - |
| 1778083299 | 2.22° C | 98% | 1018.5 hPa | 0 mm | - | - | - |
| 1778081556 | 1.67° C | 98% | 1017.9 hPa | 0 mm | - | - | - |
| 1778080042 | 1.67° C | 97% | 1017.8 hPa | 0 mm | - | - | - |
| 1778078527 | 1.11° C | 97% | 1017.8 hPa | 0 mm | - | - | - |
| 1778076714 | - | - | - | 0 mm | - | - | - |
| 1778075198 | - | - | - | 0 mm | - | - | - |
| 1778074288 | - | - | - | 0 mm | - | - | - |
| 1778073380 | 1.67° C | 95% | 1016.9 hPa | 1.78 mm | - | - | - |
| 1778072773 | 1.67° C | 95% | 1016.6 hPa | 0 mm | - | - | - |
| 1778071866 | 1.67° C | 95% | 1016.4 hPa | 0 mm | - | - | - |
| 1778071261 | 1.67° C | 95% | 1016.4 hPa | 0 mm | - | - | - |
| 1778070657 | 1.67° C | 95% | 1016.4 hPa | 0 mm | - | - | - |
| 1778070353 | 1.67° C | 95% | 1016.1 hPa | 1.78 mm | - | - | - |
| 1778069143 | 1.67° C | 94% | 1016.1 hPa | 0 mm | - | - | - |
| 1778068538 | 1.67° C | 94% | 1016.1 hPa | 0 mm | - | - | - |
| 1778068236 | 1.67° C | 94% | 1015.8 hPa | 0 mm | - | - | - |
| 1778067933 | 1.67° C | 94% | 1015.7 hPa | 0 mm | - | - | - |
| 1778066420 | 2.22° C | 92% | 1015.1 hPa | 0 mm | - | - | - |
* Rain latest hour (hover to see other rain measurements)
** Current wind speed in m/s (hover to see current wind gust speed)